Time;durP1;ratioP1;P1;durP2;ratioP2;P2;SDS_P1;SDS_P2;PMS_P1;PMS_P2;Temp;Humidity;BMP_temperature;BMP_pressure;BME280_temperature;BME280_humidity;BME280_pressure;Samples;Min_cycle;Max_cycle;Signal;HPM_P1;HPM_P2
2021/10/30 00:04:04;;;;;;;34.90;21.80;;;;;;;5.87;63.36;99642.15;477959;1189;142145;-59
2021/10/30 00:14:09;;;;;;;28.10;20.40;;;;;;;5.80;63.42;99642.30;467789;1190;142059;-58
2021/10/30 00:24:16;;;;;;;30.70;22.30;;;;;;;5.74;63.54;99651.26;460249;1177;140731;-59
2021/10/30 00:34:21;;;;;;;33.90;20.60;;;;;;;5.66;63.47;99658.37;460595;1189;141168;-57
2021/10/30 00:44:28;;;;;;;34.70;24.10;;;;;;;5.65;63.55;99649.39;464840;1190;162028;-58
2021/10/30 00:54:37;;;;;;;29.30;20.10;;;;;;;5.60;63.69;99649.41;472561;1189;141351;-59
2021/10/30 01:04:43;;;;;;;32.50;22.30;;;;;;;5.47;63.63;99656.38;468082;1189;140452;-58
2021/10/30 01:14:50;;;;;;;33.40;22.50;;;;;;;5.30;63.67;99654.45;470736;1189;141676;-59
2021/10/30 01:24:56;;;;;;;33.30;21.40;;;;;;;5.15;64.10;99644.14;477753;1189;140711;-59
2021/10/30 01:35:02;;;;;;;40.20;24.70;;;;;;;5.08;64.34;99635.90;470098;1189;141436;-59
2021/10/30 01:45:09;;;;;;;33.60;21.20;;;;;;;5.00;64.37;99626.16;476397;1189;141199;-59
2021/10/30 01:55:18;;;;;;;31.70;22.80;;;;;;;4.85;64.53;99624.36;476903;1190;141960;-59
2021/10/30 02:05:25;;;;;;;30.20;22.50;;;;;;;4.79;64.80;99615.23;460725;1190;141886;-57
2021/10/30 02:15:32;;;;;;;29.50;21.30;;;;;;;4.66;64.72;99609.45;461017;1189;208369;-59
2021/10/30 02:25:37;;;;;;;;;;;;;;;4.57;64.87;99611.90;467744;1189;141184;-58
2021/10/30 02:35:43;;;;;;;29.90;21.10;;;;;;;4.49;65.23;99610.27;460755;1190;127395;-58
2021/10/30 02:45:49;;;;;;;27.10;20.50;;;;;;;4.35;65.36;99606.50;465810;1189;141290;-58
2021/10/30 02:55:56;;;;;;;30.30;21.10;;;;;;;4.25;65.47;99600.96;474496;1191;141037;-58
2021/10/30 03:06:02;;;;;;;29.10;21.10;;;;;;;4.14;65.46;99600.84;472538;1190;140715;-60
2021/10/30 03:16:08;;;;;;;25.40;20.50;;;;;;;4.05;65.80;99601.20;466286;1190;140582;-60
2021/10/30 03:26:15;;;;;;;27.50;19.20;;;;;;;3.99;65.73;99595.34;475779;1189;141561;-62
2021/10/30 03:36:20;;;;;;;27.00;18.80;;;;;;;4.00;65.53;99592.20;477062;1189;141283;-60
2021/10/30 03:46:26;;;;;;;26.20;18.50;;;;;;;3.98;65.28;99597.95;477764;1189;141138;-60
2021/10/30 03:56:32;;;;;;;32.20;19.50;;;;;;;3.88;65.42;99604.91;464458;1189;192918;-60
2021/10/30 04:06:38;;;;;;;23.80;18.70;;;;;;;3.78;65.54;99602.49;473218;1189;140987;-61
2021/10/30 04:16:45;;;;;;;25.70;18.10;;;;;;;3.73;65.61;99596.81;476640;1189;140360;-60
2021/10/30 04:26:51;;;;;;;24.10;17.50;;;;;;;3.64;65.97;99586.91;470053;1189;141633;-60
2021/10/30 04:36:58;;;;;;;26.20;19.00;;;;;;;3.50;65.91;99582.16;467337;1189;141122;-59
2021/10/30 04:47:04;;;;;;;30.40;19.50;;;;;;;3.48;66.01;99579.48;475597;1189;140460;-61
2021/10/30 04:57:11;;;;;;;33.90;20.90;;;;;;;3.42;66.10;99577.61;476944;1190;141584;-62
2021/10/30 05:07:16;;;;;;;31.90;20.00;;;;;;;3.33;66.60;99577.56;477667;1189;141678;-61
2021/10/30 05:17:22;;;;;;;31.80;21.10;;;;;;;3.32;66.75;99582.45;473825;1190;141624;-60
2021/10/30 05:27:29;;;;;;;27.80;20.00;;;;;;;3.28;66.64;99583.80;477615;1190;141039;-60
2021/10/30 05:37:34;;;;;;;28.00;19.70;;;;;;;3.26;67.08;99585.27;469207;1190;141675;-59
2021/10/30 05:47:41;;;;;;;31.80;20.40;;;;;;;3.32;67.07;99589.20;467480;1190;140653;-61
2021/10/30 05:57:49;;;;;;;31.00;22.00;;;;;;;3.43;67.03;99597.66;467816;1190;142363;-59
2021/10/30 06:07:56;;;;;;;27.50;20.00;;;;;;;3.64;67.17;99612.86;475254;1189;142308;-61
2021/10/30 06:18:03;;;;;;;27.30;19.80;;;;;;;3.99;66.51;99620.30;461522;1189;141237;-59
2021/10/30 06:28:09;;;;;;;29.90;20.50;;;;;;;4.46;66.21;99621.14;464189;1189;140678;-60
2021/10/30 06:38:15;;;;;;;27.00;20.10;;;;;;;5.97;65.09;99617.47;461767;1190;141629;-60
2021/10/30 06:48:21;;;;;;;21.20;18.50;;;;;;;9.94;61.21;99616.21;465307;1190;145297;-60
2021/10/30 06:58:29;;;;;;;24.40;19.40;;;;;;;13.69;55.95;99610.25;462980;1189;139984;-61
2021/10/30 07:08:35;;;;;;;22.70;18.60;;;;;;;16.44;51.60;99612.24;464515;1189;144589;-61
2021/10/30 07:18:41;;;;;;;21.20;18.20;;;;;;;19.20;47.47;99609.70;463663;1177;140329;-62
2021/10/30 07:28:46;;;;;;;18.70;16.70;;;;;;;21.37;43.35;99604.33;464981;1189;141107;-61
2021/10/30 07:38:53;;;;;;;20.10;17.90;;;;;;;23.11;40.14;99596.98;476942;1189;140515;-62
2021/10/30 07:48:59;;;;;;;19.20;17.20;;;;;;;24.75;37.51;99592.10;477804;1189;144237;-63
2021/10/30 07:59:05;;;;;;;19.10;17.10;;;;;;;26.46;34.92;99577.65;477701;1189;140944;-62
2021/10/30 08:09:09;;;;;;;;;;;;;;;27.23;32.49;99571.35;464955;1190;140333;-61
2021/10/30 08:19:16;;;;;;;19.60;17.70;;;;;;;28.65;31.13;99570.39;464591;1186;125496;-62
2021/10/30 08:29:22;;;;;;;16.00;14.50;;;;;;;30.17;29.19;99563.64;461693;1180;141429;-64
2021/10/30 08:39:27;;;;;;;18.30;15.70;;;;;;;30.80;27.33;99551.84;460535;1190;142094;-64
2021/10/30 08:49:35;;;;;;;14.90;13.60;;;;;;;31.09;26.25;99550.40;460522;1190;141067;-61
2021/10/30 08:59:42;;;;;;;15.80;14.40;;;;;;;31.83;25.17;99540.33;467234;1190;141903;-59
2021/10/30 09:09:50;;;;;;;15.70;14.00;;;;;;;32.11;24.23;99524.08;465595;1189;140480;-60
2021/10/30 09:19:56;;;;;;;15.50;13.60;;;;;;;30.07;23.93;99523.95;470869;1190;141010;-61
2021/10/30 09:30:01;;;;;;;;;;;;;;;23.87;25.96;99519.67;474072;1189;141536;-60
2021/10/30 09:40:21;;;;;;;14.40;12.60;;;;;;;19.70;29.39;99524.73;453393;1189;10001788;-61
2021/10/30 09:50:31;;;;;;;16.90;14.20;;;;;;;17.27;31.87;99529.56;476824;1190;162690;-62
2021/10/30 10:00:38;;;;;;;18.10;13.30;;;;;;;16.02;34.18;99523.80;470662;1190;140800;-61
2021/10/30 10:10:44;;;;;;;13.60;12.10;;;;;;;15.12;35.80;99514.31;470595;1189;141396;-61
2021/10/30 10:20:51;;;;;;;17.10;11.70;;;;;;;14.56;36.92;99502.90;466167;1189;140965;-60
2021/10/30 10:31:04;;;;;;;13.60;9.30;;;;;;;14.51;37.16;99492.89;477762;1183;141793;-60
2021/10/30 10:41:47;;;;;;;12.30;8.80;;;;;;;14.74;36.85;99479.02;475097;1189;140829;-61
2021/10/30 10:52:04;;;;;;;10.50;7.60;;;;;;;14.94;36.97;99469.70;473478;1189;140938;-62
2021/10/30 11:02:18;;;;;;;12.50;7.90;;;;;;;15.09;36.55;99462.02;477644;1189;141315;-61
2021/10/30 11:12:28;;;;;;;13.50;7.20;;;;;;;15.16;36.45;99439.77;477023;1189;140770;-61
2021/10/30 11:22:34;;;;;;;7.40;6.20;;;;;;;15.33;35.88;99425.83;477854;1189;141813;-61
2021/10/30 11:32:40;;;;;;;8.90;6.60;;;;;;;15.50;35.65;99415.04;477096;1189;142094;-62
2021/10/30 11:42:46;;;;;;;8.30;7.40;;;;;;;15.49;35.69;99401.70;466113;1189;140497;-69
2021/10/30 11:52:52;;;;;;;14.10;6.80;;;;;;;15.51;36.04;99389.13;461965;1189;144362;-59
2021/10/30 12:03:05;;;;;;;10.70;7.40;;;;;;;15.49;36.34;99381.55;461462;1189;140319;-61
2021/10/30 12:13:15;;;;;;;8.10;6.20;;;;;;;15.46;36.55;99373.15;446393;1189;10058481;-60
2021/10/30 12:23:21;;;;;;;9.60;7.50;;;;;;;15.50;36.75;99362.81;466949;1189;144345;-63
2021/10/30 12:33:32;;;;;;;6.70;5.40;;;;;;;15.59;36.81;99355.14;463934;1178;140405;-61
2021/10/30 12:43:42;;;;;;;8.00;6.30;;;;;;;15.65;36.96;99348.77;469272;1189;139619;-62
2021/10/30 12:53:51;;;;;;;8.50;6.10;;;;;;;15.75;36.85;99343.30;468693;1189;139678;-62
2021/10/30 13:04:04;;;;;;;8.10;6.30;;;;;;;15.81;36.97;99338.31;463264;1190;139998;-62
2021/10/30 13:14:10;;;;;;;8.70;7.30;;;;;;;15.91;36.85;99326.58;462380;1189;139962;-60
2021/10/30 13:24:16;;;;;;;7.40;6.10;;;;;;;15.98;36.54;99317.27;461172;1189;139659;-60
2021/10/30 13:34:23;;;;;;;10.20;5.30;;;;;;;15.98;36.47;99320.45;463008;1189;139770;-61
2021/10/30 13:44:30;;;;;;;7.70;6.30;;;;;;;15.95;36.53;99314.05;461148;1189;143018;-74
2021/10/30 13:54:36;;;;;;;5.10;4.60;;;;;;;15.93;36.58;99298.33;454848;1189;10001388;-58
2021/10/30 14:04:42;;;;;;;7.40;5.30;;;;;;;15.86;36.69;99295.91;463186;1189;141072;-70
2021/10/30 14:14:48;;;;;;;8.40;5.80;;;;;;;15.73;36.95;99286.33;462113;1189;140888;-70
2021/10/30 14:24:54;;;;;;;9.00;6.40;;;;;;;15.56;37.45;99285.02;461035;1189;139193;-58
2021/10/30 14:35:00;;;;;;;10.10;5.40;;;;;;;15.33;37.94;99281.52;475257;1189;140870;-58
2021/10/30 14:45:14;;;;;;;10.70;6.90;;;;;;;15.11;38.54;99274.85;463912;1189;141055;-59
2021/10/30 14:55:20;;;;;;;7.90;6.90;;;;;;;14.90;39.02;99270.17;475321;1190;140742;-60
2021/10/30 15:05:27;;;;;;;10.10;6.70;;;;;;;14.55;39.51;99263.39;462501;1189;139492;-56
2021/10/30 15:15:33;;;;;;;10.30;6.80;;;;;;;14.21;39.94;99251.52;464197;1189;139811;-59
2021/10/30 15:25:39;;;;;;;12.80;7.60;;;;;;;13.86;40.60;99248.98;474267;1190;140868;-57
2021/10/30 15:35:46;;;;;;;9.10;6.20;;;;;;;13.51;41.21;99243.71;464469;1190;140949;-58
2021/10/30 15:45:52;;;;;;;13.50;7.80;;;;;;;13.18;41.76;99234.06;463224;1190;140774;-59
2021/10/30 15:55:58;;;;;;;9.10;7.50;;;;;;;12.88;42.15;99234.95;477963;1189;140006;-59
2021/10/30 16:06:04;;;;;;;12.50;7.90;;;;;;;12.61;42.74;99232.51;465222;1189;140091;-58
2021/10/30 16:16:11;;;;;;;10.80;7.60;;;;;;;12.35;43.35;99223.33;470277;1191;140266;-59
2021/10/30 16:26:17;;;;;;;15.00;10.50;;;;;;;12.15;43.91;99221.81;476683;1189;139923;-59
2021/10/30 16:36:23;;;;;;;15.10;9.20;;;;;;;12.01;44.28;99220.02;468218;1190;140550;-59
2021/10/30 16:46:29;;;;;;;16.10;10.50;;;;;;;11.85;44.55;99217.41;461207;1190;142880;-60
2021/10/30 16:56:35;;;;;;;15.60;10.70;;;;;;;11.63;45.13;99206.89;460330;1190;140561;-59
2021/10/30 17:06:41;;;;;;;15.50;10.50;;;;;;;11.44;45.61;99206.95;465330;1189;140438;-58
2021/10/30 17:16:47;;;;;;;27.30;12.40;;;;;;;11.31;46.10;99212.91;465185;1189;140259;-59
2021/10/30 17:26:53;;;;;;;13.80;10.60;;;;;;;11.23;46.36;99215.23;471844;1189;141390;-61
2021/10/30 17:36:59;;;;;;;16.40;11.20;;;;;;;11.11;46.80;99210.82;468668;1189;140774;-59
2021/10/30 17:47:05;;;;;;;19.00;10.60;;;;;;;10.90;47.13;99221.45;478016;1189;141852;-59
2021/10/30 17:57:11;;;;;;;15.00;10.90;;;;;;;10.75;47.69;99218.47;471203;1189;144719;-59
2021/10/30 18:07:18;;;;;;;18.00;10.80;;;;;;;10.62;48.23;99216.58;464512;1190;140303;-60
2021/10/30 18:17:24;;;;;;;18.40;13.20;;;;;;;10.44;48.66;99208.71;477880;1189;140871;-59
2021/10/30 18:27:30;;;;;;;17.50;12.00;;;;;;;10.25;49.08;99206.51;467146;1189;141404;-59
2021/10/30 18:37:36;;;;;;;15.80;10.30;;;;;;;10.13;49.62;99208.52;463602;1189;140280;-58
2021/10/30 18:47:42;;;;;;;19.80;11.70;;;;;;;10.06;50.13;99211.30;464104;1189;140568;-59
2021/10/30 18:57:48;;;;;;;16.90;10.80;;;;;;;10.00;50.55;99216.75;468060;1190;141193;-60
2021/10/30 19:07:54;;;;;;;21.20;11.60;;;;;;;9.92;50.82;99220.42;468937;1189;141470;-60
2021/10/30 19:18:00;;;;;;;19.60;12.90;;;;;;;9.87;51.27;99230.91;465858;1190;141221;-60
2021/10/30 19:28:06;;;;;;;22.20;13.10;;;;;;;9.69;51.73;99255.69;468640;1190;140499;-59
2021/10/30 19:38:13;;;;;;;21.40;13.70;;;;;;;9.45;52.27;99268.96;465561;1189;140922;-58
2021/10/30 19:48:19;;;;;;;26.30;14.20;;;;;;;9.31;52.89;99264.92;461920;1189;140999;-58
2021/10/30 19:58:24;;;;;;;20.80;13.40;;;;;;;9.27;53.40;99264.47;464346;1189;140985;-59
2021/10/30 20:08:30;;;;;;;21.70;13.50;;;;;;;9.26;53.81;99274.66;477061;1189;140892;-59
2021/10/30 20:18:37;;;;;;;17.70;12.30;;;;;;;9.32;53.97;99284.97;465128;1189;141599;-58
2021/10/30 20:28:44;;;;;;;19.90;12.40;;;;;;;9.45;54.18;99283.41;477816;1189;140420;-59
2021/10/30 20:38:51;;;;;;;17.10;13.20;;;;;;;9.53;54.21;99284.48;477113;1189;195635;-59
2021/10/30 20:48:57;;;;;;;20.90;14.00;;;;;;;9.43;54.30;99283.73;451077;1189;20001219;-63
2021/10/30 20:59:04;;;;;;;21.80;15.20;;;;;;;9.35;54.52;99294.88;465965;1190;141489;-62
2021/10/30 21:09:12;;;;;;;20.60;12.30;;;;;;;9.15;54.88;99295.79;461701;1190;140327;-63
2021/10/30 21:19:17;;;;;;;18.70;13.40;;;;;;;8.97;55.13;99298.80;476844;1189;195379;-61
2021/10/30 21:29:23;;;;;;;43.90;29.60;;;;;;;8.96;55.27;99307.95;467143;1189;140047;-64
2021/10/30 21:39:31;;;;;;;20.40;14.80;;;;;;;8.90;55.31;99305.55;474388;1189;144196;-64
2021/10/30 21:49:37;;;;;;;21.80;13.60;;;;;;;8.71;55.60;99318.56;464846;1190;140148;-62
2021/10/30 21:59:43;;;;;;;24.10;15.50;;;;;;;8.47;55.92;99312.46;471137;1189;142343;-62
2021/10/30 22:09:49;;;;;;;21.50;14.50;;;;;;;8.33;56.21;99313.41;470250;1190;141964;-59
2021/10/30 22:19:55;;;;;;;22.20;14.10;;;;;;;8.30;56.38;99313.29;464683;1189;140662;-60
2021/10/30 22:30:01;;;;;;;23.60;14.80;;;;;;;8.26;56.52;99312.29;466203;1189;140633;-61
2021/10/30 22:40:10;;;;;;;22.70;14.00;;;;;;;8.12;56.81;99301.73;473519;1189;140887;-60
2021/10/30 22:50:16;;;;;;;25.70;15.80;;;;;;;7.94;57.06;99315.48;463622;1189;142164;-59
2021/10/30 23:00:23;;;;;;;24.10;15.30;;;;;;;7.80;57.19;99315.25;467945;1189;140854;-58
2021/10/30 23:10:29;;;;;;;22.40;14.30;;;;;;;7.75;57.36;99332.27;474096;1189;141075;-60
2021/10/30 23:20:36;;;;;;;20.50;13.80;;;;;;;7.74;57.45;99342.11;470498;1189;141533;-62
2021/10/30 23:30:43;;;;;;;24.90;14.00;;;;;;;7.67;57.61;99349.08;467965;1188;140226;-65
2021/10/30 23:40:49;;;;;;;23.10;15.10;;;;;;;7.63;57.73;99356.79;477978;1189;141937;-67
2021/10/30 23:50:55;;;;;;;18.10;12.40;;;;;;;7.56;57.62;99355.26;474815;1189;140725;-64
